Time;durP1;ratioP1;P1;durP2;ratioP2;P2;SDS_P1;SDS_P2;PMS_P1;PMS_P2;Temp;Humidity;BMP_temperature;BMP_pressure;BME280_temperature;BME280_humidity;BME280_pressure;Samples;Min_cycle;Max_cycle;Signal;HPM_P1;HPM_P2
2021/04/09 00:00:53;;;;;;;9.82;6.30;;;;;;;5.51;100.00;102070.16;5053319;28;20075;-73
2021/04/09 00:03:38;;;;;;;10.68;5.90;;;;;;;5.03;100.00;102074.97;5053955;28;20103;-73
2021/04/09 00:06:24;;;;;;;8.68;5.97;;;;;;;5.59;100.00;102083.31;5053536;28;20040;-73
2021/04/09 00:09:11;;;;;;;9.45;5.88;;;;;;;5.18;100.00;102080.56;5053016;28;20056;-73
2021/04/09 00:11:57;;;;;;;9.18;5.90;;;;;;;5.30;100.00;102083.47;5053256;28;20373;-73
2021/04/09 00:14:43;;;;;;;11.57;6.35;;;;;;;5.40;100.00;102092.38;5038997;28;20116;-73
2021/04/09 00:17:29;;;;;;;11.02;6.13;;;;;;;5.69;100.00;102093.09;5054032;28;20017;-73
2021/04/09 00:20:18;;;;;;;9.38;5.88;;;;;;;5.65;100.00;102096.44;5038958;28;20021;-73
2021/04/09 00:23:04;;;;;;;12.43;6.20;;;;;;;5.45;100.00;102095.97;5053021;28;20048;-73
2021/04/09 00:25:49;;;;;;;9.57;6.45;;;;;;;5.46;100.00;102102.06;5053530;28;20519;-72
2021/04/09 00:28:35;;;;;;;10.75;6.65;;;;;;;5.44;100.00;102095.09;5053396;28;20374;-73
2021/04/09 00:31:21;;;;;;;10.80;6.50;;;;;;;5.32;100.00;102102.56;5053487;28;20033;-72
2021/04/09 00:34:07;;;;;;;10.23;6.60;;;;;;;5.30;100.00;102108.56;5053477;28;20033;-73
2021/04/09 00:36:53;;;;;;;10.38;6.50;;;;;;;5.36;100.00;102112.19;5053728;28;20021;-73
2021/04/09 00:39:39;;;;;;;8.38;5.82;;;;;;;5.48;100.00;102117.72;5053918;28;20028;-73
2021/04/09 00:42:24;;;;;;;10.25;6.25;;;;;;;5.20;100.00;102120.44;5053744;28;20032;-73
2021/04/09 00:45:11;;;;;;;10.95;6.35;;;;;;;5.10;100.00;102120.16;5053237;28;20033;-73
2021/04/09 00:47:57;;;;;;;7.85;5.85;;;;;;;4.98;100.00;102122.41;5053872;28;20033;-72
2021/04/09 00:50:43;;;;;;;9.65;6.68;;;;;;;4.52;100.00;102125.47;5053795;28;20091;-72
2021/04/09 00:53:28;;;;;;;10.05;6.35;;;;;;;4.27;100.00;102133.31;5053503;28;20059;-72
2021/04/09 00:56:18;;;;;;;12.20;6.40;;;;;;;4.19;100.00;102142.59;5056107;28;20365;-72
2021/04/09 00:59:04;;;;;;;9.18;6.22;;;;;;;4.67;100.00;102140.59;5057856;28;20353;-72
2021/04/09 01:01:50;;;;;;;9.95;6.47;;;;;;;4.24;100.00;102146.22;5057526;28;20092;-72
2021/04/09 01:04:36;;;;;;;10.85;6.60;;;;;;;4.05;100.00;102158.56;5057182;28;20112;-72
2021/04/09 01:07:24;;;;;;;10.57;6.90;;;;;;;3.83;100.00;102157.00;5056908;28;20032;-73
2021/04/09 01:10:11;;;;;;;9.80;6.55;;;;;;;4.06;100.00;102157.75;5042517;28;20025;-73
2021/04/09 01:12:57;;;;;;;12.15;6.53;;;;;;;3.81;100.00;102152.59;5056980;28;20021;-73
2021/04/09 01:15:43;;;;;;;11.63;7.07;;;;;;;4.04;100.00;102162.88;5057486;28;20029;-72
2021/04/09 01:18:50;;;;;;;11.55;6.70;;;;;;;4.09;100.00;102168.19;5057010;28;20029;-74
2021/04/09 01:21:54;;;;;;;11.95;7.35;;;;;;;4.04;100.00;102164.56;5056330;28;20067;-72
2021/04/09 01:25:04;;;;;;;11.40;7.13;;;;;;;4.15;100.00;102169.25;5056978;28;20037;-72
2021/04/09 01:28:05;;;;;;;10.00;7.03;;;;;;;4.21;100.00;102169.47;5056820;28;20021;-72
2021/04/09 01:31:00;;;;;;;10.75;7.10;;;;;;;4.13;100.00;102173.53;5056956;28;20060;-72
2021/04/09 01:33:50;;;;;;;11.20;6.82;;;;;;;4.35;100.00;102170.75;5056021;28;20017;-73
2021/04/09 01:36:40;;;;;;;11.98;7.30;;;;;;;3.92;100.00;102167.69;5057200;28;20123;-72
2021/04/09 01:39:32;;;;;;;12.82;7.68;;;;;;;4.03;100.00;102173.19;5059529;28;20025;-72
2021/04/09 01:42:21;;;;;;;12.20;7.45;;;;;;;4.23;100.00;102177.31;5042176;28;20104;-73
2021/04/09 01:45:10;;;;;;;13.75;7.80;;;;;;;3.95;100.00;102172.94;5056364;28;20025;-73
2021/04/09 01:47:56;;;;;;;15.10;7.78;;;;;;;3.97;100.00;102176.47;5056417;28;20351;-73
2021/04/09 01:50:43;;;;;;;12.88;8.15;;;;;;;3.83;100.00;102177.75;5056125;28;20040;-73
2021/04/09 01:53:29;;;;;;;10.48;6.95;;;;;;;4.27;100.00;102177.44;5056390;28;20048;-74
2021/04/09 01:56:17;;;;;;;11.93;8.10;;;;;;;4.04;100.00;102188.81;5055747;28;20525;-73
2021/04/09 01:59:05;;;;;;;12.52;8.13;;;;;;;4.05;100.00;102187.97;5056488;28;20039;-73
2021/04/09 02:01:51;;;;;;;11.82;7.38;;;;;;;4.03;100.00;102196.53;5055881;28;20472;-73
2021/04/09 02:04:38;;;;;;;12.57;7.70;;;;;;;3.80;100.00;102195.78;5056223;28;20074;-72
2021/04/09 02:07:25;;;;;;;13.07;8.57;;;;;;;3.83;100.00;102200.19;5040146;28;20036;-73
2021/04/09 02:10:13;;;;;;;15.07;7.68;;;;;;;3.91;100.00;102193.56;5041274;28;20090;-73
2021/04/09 02:12:59;;;;;;;12.52;8.00;;;;;;;3.79;100.00;102194.03;5040626;28;20060;-72
2021/04/09 02:15:46;;;;;;;13.50;8.20;;;;;;;4.12;100.00;102205.50;5055855;28;20102;-72
2021/04/09 02:18:32;;;;;;;13.05;8.63;;;;;;;4.08;100.00;102203.63;5041458;28;20323;-72
2021/04/09 02:21:17;;;;;;;16.13;9.32;;;;;;;3.57;100.00;102203.59;5040347;28;20186;-72
2021/04/09 02:24:05;;;;;;;13.50;8.48;;;;;;;3.58;100.00;102206.25;5055854;28;20051;-72
2021/04/09 02:26:51;;;;;;;13.82;8.98;;;;;;;4.08;100.00;102214.00;5040948;28;20021;-74
2021/04/09 02:29:37;;;;;;;16.15;8.43;;;;;;;3.82;100.00;102219.19;5041215;28;20064;-74
2021/04/09 02:32:23;;;;;;;13.40;8.93;;;;;;;3.75;100.00;102218.09;5055119;28;20021;-72
2021/04/09 02:35:12;;;;;;;11.77;8.32;;;;;;;3.88;100.00;102225.44;5055780;28;20386;-72
2021/04/09 02:37:58;;;;;;;12.60;8.35;;;;;;;4.06;100.00;102230.34;5054732;28;20035;-73
2021/04/09 02:40:44;;;;;;;13.65;8.70;;;;;;;4.04;100.00;102224.22;5055509;28;20501;-73
2021/04/09 02:43:31;;;;;;;14.00;8.80;;;;;;;3.70;100.00;102223.94;5055250;28;20055;-73
2021/04/09 02:46:33;;;;;;;14.10;8.70;;;;;;;3.92;100.00;102227.31;5055235;28;20514;-73
2021/04/09 02:49:29;;;;;;;13.98;8.63;;;;;;;3.90;100.00;102228.09;5055145;28;20032;-73
2021/04/09 02:52:22;;;;;;;13.52;8.10;;;;;;;4.05;100.00;102233.75;5054938;28;20021;-73
2021/04/09 02:55:14;;;;;;;14.15;9.07;;;;;;;3.69;100.00;102229.94;5055086;28;20107;-73
2021/04/09 02:58:06;;;;;;;13.18;8.75;;;;;;;3.90;100.00;102230.69;5054373;28;20024;-73
2021/04/09 03:00:53;;;;;;;14.07;8.70;;;;;;;3.87;100.00;102241.81;5053902;28;20465;-73
2021/04/09 03:03:40;;;;;;;15.30;8.88;;;;;;;4.03;100.00;102238.88;5054200;28;20025;-72
2021/04/09 03:06:26;;;;;;;14.95;9.18;;;;;;;3.80;100.00;102239.84;5055208;28;20025;-72
2021/04/09 03:09:13;;;;;;;13.88;9.00;;;;;;;4.02;100.00;102244.91;5054798;28;20021;-72
2021/04/09 03:11:58;;;;;;;14.73;8.85;;;;;;;3.89;100.00;102239.25;5054440;28;20039;-72
2021/04/09 03:14:47;;;;;;;14.95;8.52;;;;;;;3.85;100.00;102238.28;5055157;28;20377;-73
2021/04/09 03:17:37;;;;;;;13.85;9.18;;;;;;;3.55;100.00;102247.63;5055097;28;20029;-72
2021/04/09 03:20:23;;;;;;;14.65;9.15;;;;;;;3.62;100.00;102254.75;5054392;28;20441;-73
2021/04/09 03:23:09;;;;;;;16.55;9.00;;;;;;;3.92;100.00;102254.94;5040002;28;20477;-72
2021/04/09 03:25:55;;;;;;;13.95;9.48;;;;;;;4.01;100.00;102260.41;5054339;28;20103;-72
2021/04/09 03:28:40;;;;;;;12.45;9.13;;;;;;;3.87;100.00;102264.28;5054584;28;20033;-73
2021/04/09 03:31:26;;;;;;;19.92;9.70;;;;;;;4.16;100.00;102260.94;5040299;28;20029;-73
2021/04/09 03:34:12;;;;;;;15.40;9.55;;;;;;;3.63;100.00;102266.03;5053851;28;20057;-73
2021/04/09 03:36:58;;;;;;;13.80;9.05;;;;;;;3.35;100.00;102266.75;5055268;28;20025;-72
2021/04/09 03:39:43;;;;;;;14.50;8.98;;;;;;;3.62;100.00;102278.09;5054029;28;20025;-72
2021/04/09 03:42:29;;;;;;;15.07;8.98;;;;;;;3.91;100.00;102276.50;5053771;28;20454;-73
2021/04/09 03:45:15;;;;;;;15.65;9.20;;;;;;;3.97;100.00;102275.00;5053548;28;20029;-73
2021/04/09 03:48:01;;;;;;;15.73;9.07;;;;;;;4.01;100.00;102289.84;5054425;28;20111;-74
2021/04/09 03:50:46;;;;;;;14.30;8.73;;;;;;;3.98;100.00;102287.13;5054007;28;20150;-73
2021/04/09 03:53:32;;;;;;;13.27;8.75;;;;;;;4.22;100.00;102289.69;5054320;28;20036;-72
2021/04/09 03:56:18;;;;;;;14.32;8.80;;;;;;;3.94;100.00;102289.59;5053887;28;20418;-72
2021/04/09 03:59:04;;;;;;;15.35;9.27;;;;;;;4.06;100.00;102293.47;5054609;28;20025;-72
2021/04/09 04:01:50;;;;;;;13.10;8.20;;;;;;;3.92;100.00;102302.50;5053720;28;20111;-73
2021/04/09 04:04:35;;;;;;;16.23;9.25;;;;;;;3.56;100.00;102303.78;5053980;28;20040;-73
2021/04/09 04:07:21;;;;;;;14.10;9.35;;;;;;;3.53;100.00;102308.84;5038355;28;20025;-73
2021/04/09 04:10:08;;;;;;;13.55;9.10;;;;;;;3.58;100.00;102316.81;5053657;28;20033;-72
2021/04/09 04:12:53;;;;;;;13.95;9.00;;;;;;;3.75;100.00;102320.88;5053659;28;20044;-73
2021/04/09 04:15:39;;;;;;;15.13;9.43;;;;;;;3.66;100.00;102324.00;5053582;28;20032;-72
2021/04/09 04:18:25;;;;;;;17.83;9.52;;;;;;;3.86;100.00;102327.34;5053364;28;20032;-73
2021/04/09 04:21:11;;;;;;;16.73;9.82;;;;;;;4.14;100.00;102328.31;5038362;28;20108;-73
2021/04/09 04:23:56;;;;;;;16.20;8.75;;;;;;;3.81;100.00;102332.34;5053269;28;20386;-72
2021/04/09 04:26:42;;;;;;;15.57;10.00;;;;;;;4.08;100.00;102335.00;5053355;28;20469;-72
2021/04/09 04:29:28;;;;;;;16.00;9.32;;;;;;;3.72;100.00;102338.91;5053364;28;20368;-72
2021/04/09 04:32:14;;;;;;;14.88;9.75;;;;;;;3.38;100.00;102349.75;5038411;28;20024;-72
2021/04/09 04:35:00;;;;;;;14.90;9.98;;;;;;;3.67;100.00;102354.31;5039906;28;20117;-73
2021/04/09 04:37:45;;;;;;;14.77;8.90;;;;;;;3.74;100.00;102358.00;5053465;28;20072;-72
2021/04/09 04:40:31;;;;;;;15.90;9.05;;;;;;;4.31;100.00;102360.88;5056041;28;20155;-72
2021/04/09 04:43:17;;;;;;;16.85;9.80;;;;;;;4.14;100.00;102361.16;5053884;28;20449;-73
2021/04/09 04:46:03;;;;;;;14.90;9.65;;;;;;;4.03;100.00;102362.50;5053329;28;20025;-73
2021/04/09 04:48:48;;;;;;;13.30;9.20;;;;;;;4.06;100.00;102360.88;5053336;28;20025;-72
2021/04/09 04:51:34;;;;;;;20.08;10.18;;;;;;;4.17;100.00;102374.22;5038538;28;20032;-73
2021/04/09 04:54:20;;;;;;;13.90;9.25;;;;;;;4.15;100.00;102381.09;5053464;28;20029;-72
2021/04/09 04:57:06;;;;;;;16.27;9.32;;;;;;;4.47;100.00;102381.34;5053359;28;20129;-73
2021/04/09 04:59:51;;;;;;;18.08;9.60;;;;;;;4.37;100.00;102383.56;5038864;28;20464;-73
2021/04/09 05:02:37;;;;;;;16.40;10.13;;;;;;;4.26;100.00;102392.72;5053061;28;20461;-73
2021/04/09 05:05:23;;;;;;;15.25;9.57;;;;;;;4.42;100.00;102387.22;5053334;28;20438;-74
2021/04/09 05:08:08;;;;;;;16.17;9.57;;;;;;;4.44;100.00;102391.63;5053333;28;20033;-73
2021/04/09 05:10:55;;;;;;;15.32;10.07;;;;;;;4.65;100.00;102394.94;5038535;28;20056;-73
2021/04/09 05:13:40;;;;;;;15.02;9.88;;;;;;;4.31;100.00;102394.63;5052800;28;20095;-73
2021/04/09 05:16:26;;;;;;;13.98;9.57;;;;;;;4.53;100.00;102394.53;5052346;28;20071;-72
2021/04/09 05:19:12;;;;;;;17.90;9.40;;;;;;;4.82;100.00;102396.34;5052200;28;20480;-73
2021/04/09 05:21:57;;;;;;;19.17;9.95;;;;;;;4.53;100.00;102396.22;5052690;28;20056;-74
2021/04/09 05:24:45;;;;;;;15.98;10.45;;;;;;;4.09;100.00;102397.31;5052594;28;20484;-72
2021/04/09 05:27:31;;;;;;;16.52;9.90;;;;;;;4.34;100.00;102405.09;5052529;28;20044;-74
2021/04/09 05:30:17;;;;;;;18.90;9.63;;;;;;;4.85;100.00;102417.25;5053056;28;20351;-73
2021/04/09 05:33:03;;;;;;;15.40;9.75;;;;;;;4.63;100.00;102413.88;5052448;28;20460;-73
2021/04/09 05:35:49;;;;;;;14.82;9.45;;;;;;;4.63;100.00;102419.94;5053205;28;20029;-74
2021/04/09 05:38:35;;;;;;;18.42;9.82;;;;;;;4.58;100.00;102426.69;5037670;28;20112;-74
2021/04/09 05:41:21;;;;;;;16.13;9.70;;;;;;;4.72;100.00;102432.38;5054554;28;20029;-73
2021/04/09 05:44:07;;;;;;;17.52;9.82;;;;;;;4.92;100.00;102429.59;5056167;28;20017;-72
2021/04/09 05:46:52;;;;;;;13.52;9.30;;;;;;;5.21;100.00;102428.81;5056627;28;20035;-74
2021/04/09 05:49:38;;;;;;;16.88;9.73;;;;;;;5.18;100.00;102430.41;5055611;28;20094;-73
2021/04/09 05:52:24;;;;;;;17.73;10.23;;;;;;;5.38;100.00;102438.84;5055944;28;20049;-73
2021/04/09 05:55:10;;;;;;;15.40;9.55;;;;;;;5.38;100.00;102442.31;5056162;28;20138;-73
2021/04/09 05:57:56;;;;;;;19.65;10.35;;;;;;;5.43;100.00;102447.66;5055942;28;20159;-73
2021/04/09 06:00:42;;;;;;;14.48;9.07;;;;;;;5.55;100.00;102455.81;5056205;28;20465;-73
2021/04/09 06:03:28;;;;;;;12.77;9.18;;;;;;;5.67;100.00;102458.78;5056229;28;20035;-72
2021/04/09 06:06:14;;;;;;;12.00;8.32;;;;;;;5.72;100.00;102470.22;5056321;28;20037;-73
2021/04/09 06:09:01;;;;;;;14.77;8.35;;;;;;;5.56;100.00;102465.38;5040880;28;20029;-73
2021/04/09 06:11:48;;;;;;;14.10;9.02;;;;;;;6.13;100.00;102454.09;5056244;28;20108;-73
2021/04/09 06:14:34;;;;;;;13.68;9.48;;;;;;;6.04;100.00;102464.25;5040718;28;20343;-73
2021/04/09 06:17:20;;;;;;;15.75;8.45;;;;;;;5.42;100.00;102464.09;5055397;28;20021;-73
2021/04/09 06:20:06;;;;;;;15.13;9.35;;;;;;;5.70;100.00;102477.09;5055158;28;20397;-73
2021/04/09 06:22:52;;;;;;;13.95;9.00;;;;;;;6.00;100.00;102472.81;5055324;28;20041;-73
2021/04/09 06:25:38;;;;;;;13.40;9.02;;;;;;;6.21;100.00;102473.41;5054680;28;20037;-74
2021/04/09 06:28:24;;;;;;;12.30;8.73;;;;;;;5.46;100.00;102479.81;5055502;28;20063;-73
2021/04/09 06:31:09;;;;;;;17.95;9.32;;;;;;;6.14;100.00;102484.53;5055584;28;20408;-73
2021/04/09 06:33:56;;;;;;;14.52;9.38;;;;;;;6.00;100.00;102493.63;5055816;28;20454;-73
2021/04/09 06:36:41;;;;;;;14.18;9.73;;;;;;;6.20;100.00;102497.69;5055702;28;20029;-74
2021/04/09 06:39:27;;;;;;;14.07;8.95;;;;;;;6.15;100.00;102494.94;5040281;28;20351;-73
2021/04/09 06:42:17;;;;;;;15.20;9.45;;;;;;;6.52;100.00;102497.75;5055153;28;20037;-73
2021/04/09 06:45:07;;;;;;;14.13;9.07;;;;;;;6.88;100.00;102495.25;5040204;28;20361;-72
2021/04/09 06:47:54;;;;;;;14.40;9.35;;;;;;;6.92;100.00;102502.28;5040514;28;20028;-72
2021/04/09 06:50:40;;;;;;;15.50;9.60;;;;;;;6.93;100.00;102504.94;5054841;28;20170;-73
2021/04/09 06:53:27;;;;;;;15.27;9.75;;;;;;;6.50;100.00;102507.22;5039807;28;20036;-73
2021/04/09 06:56:13;;;;;;;16.35;10.45;;;;;;;6.58;100.00;102507.44;5055067;28;20029;-73
2021/04/09 06:58:59;;;;;;;19.60;9.07;;;;;;;6.92;100.00;102505.78;5054961;28;20020;-73
2021/04/09 07:01:46;;;;;;;14.93;9.85;;;;;;;7.37;100.00;102506.03;5054289;28;20052;-73
2021/04/09 07:04:34;;;;;;;15.07;9.38;;;;;;;7.21;100.00;102509.09;5055392;28;20044;-74
2021/04/09 07:07:20;;;;;;;15.68;9.88;;;;;;;7.23;100.00;102507.44;5054670;28;20025;-74
2021/04/09 07:10:07;;;;;;;17.90;10.25;;;;;;;7.54;100.00;102520.34;5054519;28;20033;-73
2021/04/09 07:13:13;;;;;;;17.63;10.55;;;;;;;7.71;100.00;102519.00;5053833;28;20112;-73
2021/04/09 07:16:10;;;;;;;15.77;10.70;;;;;;;7.34;100.00;102519.88;5053950;28;20079;-74
2021/04/09 07:19:04;;;;;;;22.95;10.80;;;;;;;7.78;100.00;102526.13;5054220;28;20029;-73
2021/04/09 07:22:03;;;;;;;14.52;10.07;;;;;;;8.21;100.00;102519.31;5054046;28;20017;-73
2021/04/09 07:25:02;;;;;;;17.13;10.13;;;;;;;8.23;100.00;102521.91;5054759;28;20024;-73
2021/04/09 07:27:50;;;;;;;17.98;10.98;;;;;;;8.72;100.00;102509.84;5054156;28;20090;-73
2021/04/09 07:30:37;;;;;;;16.05;10.73;;;;;;;8.42;100.00;102516.22;5054643;28;20381;-73
2021/04/09 07:33:24;;;;;;;17.40;10.45;;;;;;;8.62;100.00;102525.34;5053759;28;20126;-73
2021/04/09 07:36:10;;;;;;;15.52;10.50;;;;;;;8.59;100.00;102522.66;5040094;28;20029;-72
2021/04/09 07:38:56;;;;;;;14.55;10.00;;;;;;;8.85;100.00;102527.50;5053467;28;20463;-72
2021/04/09 07:41:42;;;;;;;16.30;10.25;;;;;;;8.76;100.00;102524.75;5054367;28;20040;-72
2021/04/09 07:44:28;;;;;;;18.10;10.80;;;;;;;8.42;100.00;102530.19;5039986;28;20025;-72
2021/04/09 07:47:15;;;;;;;17.80;11.60;;;;;;;8.79;100.00;102530.03;5054615;28;20025;-73
2021/04/09 07:50:07;;;;;;;16.00;9.43;;;;;;;8.83;100.00;102530.94;5053827;28;20037;-72
2021/04/09 07:52:53;;;;;;;14.35;9.23;;;;;;;9.23;100.00;102541.25;5054567;28;20021;-73
2021/04/09 07:55:42;;;;;;;14.07;10.15;;;;;;;9.22;97.57;102534.28;5038122;28;20024;-73
2021/04/09 07:58:32;;;;;;;20.05;10.15;;;;;;;9.44;94.94;102533.75;5053362;28;20064;-72
2021/04/09 08:01:23;;;;;;;15.57;9.57;;;;;;;9.59;89.13;102539.25;5054462;28;20029;-73
2021/04/09 08:04:13;;;;;;;18.92;10.02;;;;;;;9.79;89.21;102533.47;5052878;28;20049;-73
2021/04/09 08:06:58;;;;;;;18.40;10.30;;;;;;;10.53;83.25;102530.97;5039269;28;20515;-74
2021/04/09 08:09:48;;;;;;;15.50;9.80;;;;;;;11.39;76.64;102528.34;5052962;28;20103;-74
2021/04/09 08:12:37;;;;;;;15.93;10.13;;;;;;;10.86;79.09;102531.34;5053529;28;20024;-74
2021/04/09 08:15:24;;;;;;;15.60;9.35;;;;;;;10.65;80.68;102526.72;5038130;28;20032;-73
2021/04/09 08:18:11;;;;;;;14.88;9.57;;;;;;;11.41;75.25;102536.22;5053788;28;20135;-73
2021/04/09 08:20:57;;;;;;;15.95;9.30;;;;;;;11.51;72.38;102538.03;5039295;28;20029;-74
2021/04/09 08:23:47;;;;;;;14.35;9.05;;;;;;;11.79;68.57;102542.66;5053048;28;20053;-74
2021/04/09 08:26:34;;;;;;;16.33;8.90;;;;;;;12.21;67.34;102540.25;5052492;28;20178;-73
2021/04/09 08:29:21;;;;;;;24.90;9.20;;;;;;;12.44;64.46;102544.75;5054117;28;20040;-73
2021/04/09 08:32:09;;;;;;;20.58;8.60;;;;;;;12.55;59.93;102539.53;5053206;28;20025;-74
2021/04/09 08:34:55;;;;;;;23.52;9.02;;;;;;;12.89;56.95;102539.63;5038299;28;20051;-74
2021/04/09 08:37:41;;;;;;;24.20;9.20;;;;;;;13.41;55.13;102538.84;5053205;28;20441;-73
2021/04/09 08:40:27;;;;;;;26.02;9.32;;;;;;;13.11;51.52;102536.19;5039448;28;20029;-73
2021/04/09 08:43:13;;;;;;;22.75;8.02;;;;;;;12.66;50.96;102535.22;5053247;28;20025;-73
2021/04/09 08:46:00;;;;;;;12.13;6.25;;;;;;;12.43;48.27;102536.88;5053286;28;20032;-73
2021/04/09 08:48:49;;;;;;;12.32;6.32;;;;;;;12.56;48.59;102539.56;5053304;28;20354;-73
2021/04/09 08:51:40;;;;;;;14.45;7.57;;;;;;;12.26;48.19;102531.53;5052961;28;20056;-73
2021/04/09 08:54:31;;;;;;;14.23;7.40;;;;;;;12.38;48.44;102534.22;5038471;28;20029;-73
2021/04/09 08:57:29;;;;;;;12.18;7.85;;;;;;;12.88;47.70;102531.75;5053142;28;20039;-73
2021/04/09 09:00:24;;;;;;;16.10;8.32;;;;;;;13.49;48.27;102529.19;5053615;28;20025;-74
2021/04/09 09:03:36;;;;;;;19.52;8.05;;;;;;;12.82;49.11;102529.97;5038636;28;20393;-74
2021/04/09 09:06:41;;;;;;;22.92;7.22;;;;;;;12.63;48.02;102536.06;5053223;28;20056;-75
2021/04/09 09:09:36;;;;;;;11.40;6.00;;;;;;;12.41;48.66;102531.59;5052980;28;20032;-74
2021/04/09 09:12:24;;;;;;;13.40;6.78;;;;;;;12.48;47.58;102533.38;5052710;28;20025;-74
2021/04/09 09:15:10;;;;;;;13.32;7.30;;;;;;;12.91;45.96;102539.66;5053567;28;20091;-74
2021/04/09 09:17:55;;;;;;;19.88;6.50;;;;;;;13.63;45.32;102532.66;5042349;28;20369;-75
2021/04/09 09:21:01;;;;;;;14.60;5.93;;;;;;;14.03;44.53;102534.34;5041979;28;20020;-76
2021/04/09 09:23:56;;;;;;;9.68;5.07;;;;;;;13.11;44.60;102536.19;5041994;28;20110;-74
2021/04/09 09:26:48;;;;;;;10.00;5.28;;;;;;;13.82;41.97;102529.13;5056612;28;20056;-75
2021/04/09 09:29:45;;;;;;;10.35;5.05;;;;;;;13.61;42.10;102529.19;5056965;28;20449;-75
2021/04/09 09:32:31;;;;;;;13.20;6.00;;;;;;;13.55;41.25;102526.53;5056548;28;20036;-75
2021/04/09 09:35:55;;;;;;;11.75;5.70;;;;;;;12.88;41.68;102527.38;5057888;28;20033;-75
2021/04/09 09:38:48;;;;;;;8.07;4.85;;;;;;;13.19;40.65;102517.78;5041643;28;20075;-74
2021/04/09 09:41:47;;;;;;;7.50;4.43;;;;;;;13.26;40.18;102523.03;5056404;28;20465;-74
2021/04/09 09:44:39;;;;;;;8.27;4.43;;;;;;;13.67;40.40;102513.34;5055933;28;20020;-75
2021/04/09 09:47:41;;;;;;;8.32;4.38;;;;;;;13.01;39.30;102523.91;5056932;28;20125;-74
2021/04/09 09:50:29;;;;;;;7.47;4.38;;;;;;;12.79;39.17;102521.19;5055823;28;20109;-73
2021/04/09 09:53:14;;;;;;;6.05;3.90;;;;;;;12.46;38.95;102505.34;5041143;28;20031;-74
2021/04/09 09:56:26;;;;;;;5.88;3.90;;;;;;;12.76;39.05;102514.19;5054852;28;20361;-75
2021/04/09 09:59:17;;;;;;;13.00;4.75;;;;;;;13.17;39.11;102512.50;5041165;28;20029;-73
2021/04/09 10:02:04;;;;;;;7.15;4.22;;;;;;;13.54;38.00;102511.63;5055940;28;20091;-74
2021/04/09 10:04:54;;;;;;;6.03;4.30;;;;;;;13.00;38.19;102516.91;5056107;28;20013;-74
2021/04/09 10:07:40;;;;;;;6.38;4.07;;;;;;;12.82;39.22;102516.81;5041091;28;20025;-75
2021/04/09 10:10:37;;;;;;;9.35;4.90;;;;;;;12.88;39.75;102514.22;5055717;28;20036;-74
2021/04/09 10:13:27;;;;;;;7.75;4.20;;;;;;;13.51;39.59;102513.38;5041827;28;20112;-74
2021/04/09 10:16:18;;;;;;;9.15;4.45;;;;;;;13.77;36.60;102516.84;5055778;28;20029;-73
2021/04/09 10:19:07;;;;;;;5.97;3.95;;;;;;;13.90;36.65;102508.03;5041131;28;20021;-73
2021/04/09 10:21:54;;;;;;;7.85;4.43;;;;;;;14.51;35.90;102505.19;5055118;28;20461;-74
2021/04/09 10:24:39;;;;;;;5.82;4.68;;;;;;;13.60;36.60;102511.63;5054710;28;20056;-73
2021/04/09 10:27:25;;;;;;;7.50;4.50;;;;;;;13.62;35.97;102507.22;5054230;28;20052;-74
2021/04/09 10:30:11;;;;;;;4.28;3.42;;;;;;;14.29;35.77;102500.91;5055460;28;20061;-75
2021/04/09 10:32:57;;;;;;;6.50;4.68;;;;;;;14.43;36.11;102504.34;5040227;28;20040;-74
2021/04/09 10:35:46;;;;;;;5.20;4.43;;;;;;;14.15;36.10;102507.09;5041154;28;20021;-75
2021/04/09 10:38:32;;;;;;;6.88;4.85;;;;;;;14.23;35.78;102500.06;5054727;28;20029;-74
2021/04/09 10:41:28;;;;;;;5.95;4.35;;;;;;;13.41;35.43;102507.25;5056275;28;20051;-72
2021/04/09 10:44:29;;;;;;;5.57;4.38;;;;;;;13.97;34.47;102500.13;5058246;28;20456;-72
2021/04/09 10:47:14;;;;;;;5.80;4.40;;;;;;;13.83;35.52;102495.78;5042264;28;20362;-73
2021/04/09 10:50:02;;;;;;;6.53;4.90;;;;;;;14.72;35.34;102488.38;5055334;28;20028;-72
2021/04/09 10:52:51;;;;;;;6.40;5.28;;;;;;;14.52;36.22;102492.88;5053885;28;20021;-72
2021/04/09 10:55:36;;;;;;;7.75;5.10;;;;;;;14.22;36.21;102485.09;5054475;28;20032;-73
2021/04/09 10:58:22;;;;;;;8.00;5.20;;;;;;;15.10;35.76;102488.09;5055460;28;20020;-73
2021/04/09 11:01:10;;;;;;;7.47;5.13;;;;;;;15.44;35.55;102486.94;5055138;28;20357;-74
2021/04/09 11:03:58;;;;;;;7.28;4.82;;;;;;;15.41;34.86;102486.97;5040061;28;20086;-73
2021/04/09 11:06:53;;;;;;;6.85;5.18;;;;;;;14.83;35.39;102484.75;5055071;28;20039;-73
2021/04/09 11:09:49;;;;;;;6.07;4.68;;;;;;;15.51;34.28;102486.00;5040011;28;20032;-74
2021/04/09 11:12:35;;;;;;;6.32;4.82;;;;;;;15.23;34.41;102481.84;5040255;28;20103;-74
2021/04/09 11:15:22;;;;;;;8.50;4.75;;;;;;;14.87;34.79;102484.75;5040283;28;20097;-73
2021/04/09 11:18:08;;;;;;;7.68;5.72;;;;;;;14.60;35.39;102484.03;5039535;28;20025;-73
2021/04/09 11:20:53;;;;;;;7.97;4.65;;;;;;;14.35;35.97;102479.78;5054347;28;20525;-74
2021/04/09 11:23:57;;;;;;;5.75;4.90;;;;;;;14.89;35.01;102475.94;5055119;28;20067;-79
2021/04/09 11:27:03;;;;;;;7.53;5.50;;;;;;;14.49;35.50;102477.97;5053644;28;20490;-74
2021/04/09 11:29:49;;;;;;;11.65;6.65;;;;;;;14.53;35.96;102474.41;5039995;28;20040;-74
2021/04/09 11:32:46;;;;;;;10.00;5.80;;;;;;;14.15;36.86;102463.13;5053789;28;20276;-74
2021/04/09 11:35:38;;;;;;;9.98;6.10;;;;;;;13.53;37.82;102472.13;5054987;28;20040;-74
2021/04/09 11:38:34;;;;;;;9.23;5.85;;;;;;;13.63;38.42;102474.72;5053780;28;20039;-74
2021/04/09 11:41:40;;;;;;;8.52;5.50;;;;;;;14.36;37.50;102467.47;5054845;28;20021;-74
2021/04/09 11:44:39;;;;;;;7.22;5.13;;;;;;;14.38;37.18;102463.94;5053876;28;20060;-74
2021/04/09 11:47:28;;;;;;;7.18;5.55;;;;;;;14.36;36.80;102464.84;5054574;28;20064;-74
2021/04/09 11:50:25;;;;;;;9.07;5.18;;;;;;;14.34;37.72;102467.47;5038695;28;20524;-74
2021/04/09 11:53:11;;;;;;;9.73;5.55;;;;;;;13.58;38.03;102471.22;5039538;28;20025;-74
2021/04/09 11:55:57;;;;;;;6.78;5.18;;;;;;;13.77;37.64;102461.53;5053626;28;20063;-73
2021/04/09 11:58:43;;;;;;;5.78;4.80;;;;;;;13.34;38.51;102473.03;5053911;28;20025;-74
2021/04/09 12:01:28;;;;;;;8.70;4.85;;;;;;;14.04;38.49;102464.97;5039144;28;20035;-73
2021/04/09 12:04:37;;;;;;;8.32;5.18;;;;;;;14.24;38.35;102462.25;5053632;28;20032;-74
2021/04/09 12:07:26;;;;;;;6.85;4.82;;;;;;;13.98;39.00;102456.19;5039903;28;20082;-74
2021/04/09 12:10:13;;;;;;;6.90;4.68;;;;;;;14.08;38.86;102457.91;5053745;28;20025;-74
2021/04/09 12:12:59;;;;;;;6.53;4.65;;;;;;;14.43;38.26;102453.38;5053788;28;20021;-74
2021/04/09 12:15:45;;;;;;;6.30;5.00;;;;;;;13.78;38.63;102448.34;5038810;28;20028;-74
2021/04/09 12:18:31;;;;;;;6.07;4.75;;;;;;;14.43;38.37;102456.03;5053856;28;20472;-74
2021/04/09 12:21:17;;;;;;;7.10;4.75;;;;;;;14.66;37.07;102447.06;5053635;28;20029;-73
2021/04/09 12:24:03;;;;;;;6.68;4.72;;;;;;;15.29;36.64;102448.31;5053135;28;20083;-74
2021/04/09 12:26:49;;;;;;;8.57;5.03;;;;;;;14.83;35.85;102437.25;5052921;28;20482;-74
2021/04/09 12:29:36;;;;;;;8.20;4.70;;;;;;;14.77;37.55;102442.59;5038936;28;20048;-74
2021/04/09 12:32:22;;;;;;;7.10;5.05;;;;;;;14.95;37.17;102433.63;5038698;28;20021;-74
2021/04/09 12:35:09;;;;;;;7.43;4.85;;;;;;;14.67;37.08;102422.44;5054211;28;20102;-74
2021/04/09 12:37:55;;;;;;;6.95;5.30;;;;;;;14.17;37.89;102423.59;5053245;28;20107;-73
2021/04/09 12:40:41;;;;;;;6.15;4.90;;;;;;;14.47;37.50;102421.69;5053325;28;20373;-74
2021/04/09 12:43:28;;;;;;;7.93;5.75;;;;;;;13.51;39.11;102424.72;5053456;28;20106;-73
2021/04/09 12:46:13;;;;;;;8.45;5.20;;;;;;;14.35;37.80;102421.75;5038686;28;20017;-74
2021/04/09 12:48:59;;;;;;;6.03;5.10;;;;;;;14.52;37.40;102421.66;5053656;28;20469;-73
2021/04/09 12:51:46;;;;;;;6.30;4.93;;;;;;;14.48;37.71;102412.88;5055228;28;20033;-73
2021/04/09 12:54:32;;;;;;;11.80;5.97;;;;;;;14.77;38.25;102423.25;5057417;28;20037;-75
2021/04/09 12:57:18;;;;;;;9.05;6.55;;;;;;;14.26;38.19;102416.53;5057166;28;20466;-74